Latest Weather Observations for Cleve Airport

IDS60801

Issued at 4:11 pm CST Tuesday 20 April 2021 (issued every 10 minutes, with the page automatically refreshed every 10 minutes)

About weather observations | Map of weather stations | Latest weather observations for SA | Other Formats
Station Details ID: 018116 Name: CLEVE AERODROME Lat: -33.71 Lon: 136.50 Height: 175.0 m
Data from the previous 72 hours. | See also: Recent months at Cleve Airport
Date/Time
CST
Temp
°C
App
Temp
°C
Dew
Point
°C
Rel
Hum
%
Delta-T
°C
Wind Press
QNH
hPa
Press
MSL
hPa
Rain since
9am
mm
Dir  Spd
km/h
Gust
km/h
Spd
kts
Gust
kts
20/04:00pm 15.6 11.4 9.7 68 3.1 SSE 22 28 12 15 1017.9 1017.6 1.6
20/03:30pm 16.3 12.7 10.6 69 3.0 SSE 20 30 11 16 1017.6 1017.3 1.6
20/03:00pm 16.0 11.4 11.0 72 2.7 SSE 26 32 14 17 1017.7 1017.4 1.6
20/02:30pm 14.6 9.8 11.7 83 1.6 SE 28 43 15 23 1017.7 1017.4 1.6
20/02:00pm 14.9 10.1 11.7 81 1.7 SSE 28 35 15 19 1017.9 1017.6 1.6
20/01:30pm 14.7 10.9 12.4 86 1.3 SSE 24 33 13 18 1017.9 1017.6 1.6
20/01:00pm 15.4 10.6 11.8 79 2.0 SSE 28 33 15 18 1017.8 1017.5 1.6
20/12:30pm 14.7 10.6 12.6 87 1.2 S 26 33 14 18 1017.9 1017.6 1.6
20/12:00pm 14.7 10.6 12.7 88 1.1 S 26 39 14 21 1017.7 1017.4 1.4
20/11:30am 14.5 10.1 12.9 90 0.9 S 28 41 15 22 1017.7 1017.4 0.2
20/11:00am 14.8 11.6 13.2 90 0.9 WSW 22 28 12 15 1017.6 1017.3 0.0
20/10:30am 14.6 11.7 12.8 89 1.0 W 20 32 11 17 1017.3 1017.0 0.0
20/10:00am 15.8 10.7 11.8 77 2.2 W 30 41 16 22 1017.1 1016.7 0.0
20/09:30am 16.7 11.8 11.4 71 2.9 W 28 41 15 22 1016.9 1016.5 0.0
20/09:00am 15.9 12.1 11.1 73 2.6 WNW 22 32 12 17 1016.8 1016.4 0.0
20/08:30am 15.4 11.8 11.8 79 2.0 WNW 22 32 12 17 1016.5 1016.1 0.0
20/08:00am 14.2 9.7 11.4 83 1.5 NW 26 35 14 19 1016.1 1015.7 0.0
20/07:30am 13.3 9.3 10.5 83 1.5 NW 22 30 12 16 1015.7 1015.3 0.0
20/07:00am 12.3 7.6 9.3 82 1.5 NW 24 35 13 19 1015.6 1015.2 0.0
20/06:30am 12.1 7.7 8.8 80 1.7 NW 22 28 12 15 1015.6 1015.2 0.0
20/06:00am 12.1 8.0 8.6 79 1.8 NW 20 32 11 17 1015.3 1014.9 0.0
20/05:30am 12.2 8.4 8.9 80 1.7 NW 19 24 10 13 1015.2 1014.8 0.0
20/05:00am 12.2 8.7 8.7 79 1.8 NW 17 22 9 12 1015.2 1014.8 0.0
20/04:30am 12.4 8.8 8.5 77 2.0 NW 17 22 9 12 1014.9 1014.5 0.0
20/04:00am 12.4 8.8 8.3 76 2.0 NW 17 22 9 12 1014.6 1014.2 0.0
20/03:30am 12.7 9.1 8.2 74 2.2 NW 17 22 9 12 1014.7 1014.3 0.0
20/03:00am 12.6 8.8 7.7 72 2.4 NW 17 20 9 11 1014.8 1014.4 0.0
20/02:30am 12.8 9.8 7.5 70 2.6 NW 13 17 7 9 1014.9 1014.5 0.0
20/02:00am 12.7 8.9 7.4 70 2.6 NNW 17 22 9 12 1015.0 1014.6 0.0
20/01:30am 12.9 9.9 7.6 70 2.6 NW 13 19 7 10 1015.2 1014.8 0.0
20/01:00am 12.9 9.9 7.8 71 2.5 NNW 13 19 7 10 1015.3 1014.9 0.0
20/12:30am 12.6 9.2 7.5 71 2.5 NNW 15 19 8 10 1015.5 1015.1 0.0
20/12:00am 12.6 8.7 7.3 70 2.6 NNW 17 20 9 11 1015.9 1015.5 0.0
 
Date/Time
CST
Temp
°C
App
Temp
°C
Dew
Point
°C
Rel
Hum
%
Delta-T
°C
Wind Press
QNH
hPa
Press
MSL
hPa
Rain since
9am
mm
Dir  Spd
km/h
Gust
km/h
Spd
kts
Gust
kts
19/11:30pm 11.9 8.5 6.0 67 2.8 NNW 13 15 7 8 1016.1 1015.7 0.0
19/11:00pm 12.2 8.7 5.6 64 3.1 NW 13 15 7 8 1016.4 1016.0 0.0
19/10:30pm 12.2 9.1 5.4 63 3.2 NW 11 13 6 7 1016.5 1016.1 0.0
19/10:00pm 12.8 10.1 5.5 61 3.4 WNW 9 11 5 6 1016.7 1016.3 0.0
19/09:30pm 11.8 8.6 5.2 64 3.1 NW 11 13 6 7 1016.5 1016.1 0.0
19/09:00pm 11.7 8.8 4.9 63 3.1 NW 9 11 5 6 1016.6 1016.2 0.0
19/08:30pm 13.2 10.9 4.9 57 3.9 WNW 6 6 3 3 1016.6 1016.2 0.0
19/08:00pm 12.8 10.3 4.8 58 3.7 W 7 7 4 4 1016.6 1016.2 0.0
19/07:30pm 14.4 11.8 4.1 50 4.8 WSW 7 11 4 6 1016.5 1016.1 0.0
19/07:00pm 16.0 12.3 4.7 47 5.4 W 13 15 7 8 1016.3 1015.9 0.0
19/06:30pm 17.6 12.8 4.6 42 6.2 WSW 19 26 10 14 1015.6 1015.2 0.0
19/06:00pm 19.5 15.9 3.2 34 7.7 WNW 11 15 6 8 1015.2 1014.8 0.0
19/05:30pm 20.9 17.0 3.6 32 8.3 W 13 19 7 10 1015.1 1014.7 0.0
19/05:00pm 21.5 16.3 3.7 31 8.6 NW 20 35 11 19 1015.0 1014.6 0.0
19/04:30pm 21.3 16.2 4.0 32 8.4 W 20 30 11 16 1015.3 1014.9 0.0
19/04:00pm 22.3 17.2 3.9 30 9.0 W 20 28 11 15 1015.3 1014.9 0.0
19/03:30pm 21.8 15.8 3.5 30 8.9 WNW 24 33 13 18 1015.5 1015.1 0.0
19/03:00pm 22.5 18.1 4.5 31 8.9 NW 17 28 9 15 1015.5 1015.1 0.0
19/02:30pm 21.3 17.2 4.4 33 8.3 WSW 15 26 8 14 1015.7 1015.3 0.0
19/02:00pm 21.2 15.8 4.3 33 8.3 WNW 22 39 12 21 1015.9 1015.5 0.0
19/01:30pm 21.0 15.5 4.1 33 8.2 W 22 32 12 17 1016.4 1016.0 0.0
19/01:00pm 20.7 15.0 5.1 36 7.7 WNW 24 32 13 17 1017.1 1016.7 0.0
19/12:30pm 20.0 14.4 5.3 38 7.3 WNW 24 41 13 22 1017.8 1017.5 0.0
19/12:00pm 20.0 14.4 5.3 38 7.3 WNW 24 32 13 17 1018.4 1018.0 0.0
19/11:30am 20.0 14.8 5.6 39 7.2 NW 22 41 12 22 1018.8 1018.4 0.0
19/11:00am 19.5 14.5 6.3 42 6.6 NW 22 39 12 21 1019.3 1018.9 0.0
19/10:30am 18.8 13.9 6.9 46 6.0 NW 22 32 12 17 1019.6 1019.2 0.0
19/10:00am 18.2 13.8 7.3 49 5.5 NW 20 28 11 15 1019.8 1019.4 0.0
19/09:30am 17.7 13.0 7.7 52 5.1 NW 22 30 12 16 1020.1 1019.7 0.0
19/09:00am 17.0 13.5 8.7 58 4.3 NNW 17 26 9 14 1020.2 1019.8 0.0
19/08:30am 15.5 11.8 9.4 67 3.2 NNW 19 24 10 13 1020.3 1019.9 0.0
19/08:00am 14.0 10.7 9.4 74 2.4 NNW 17 20 9 11 1020.1 1019.7 0.0
19/07:30am 12.2 9.1 8.7 79 1.8 NNW 15 20 8 11 1020.1 1019.7 0.0
19/07:00am 11.5 7.9 8.4 81 1.5 NNW 17 20 9 11 1020.1 1019.7 0.0
19/06:30am 11.2 8.3 8.2 82 1.5 NNW 13 17 7 9 1020.1 1019.7 0.0
19/06:00am 10.5 7.9 7.7 83 1.4 NW 11 15 6 8 1020.1 1019.7 0.0
19/05:30am 10.9 7.6 8.0 82 1.4 NW 15 17 8 9 1020.3 1019.9 0.0
19/05:00am 11.1 8.1 7.8 80 1.6 NW 13 15 7 8 1020.1 1019.7 0.0
19/04:30am 11.4 8.4 7.7 78 1.8 NW 13 17 7 9 1020.2 1019.8 0.0
19/04:00am 11.6 8.6 7.9 78 1.8 NW 13 15 7 8 1020.2 1019.8 0.0
19/03:30am 12.1 9.2 8.2 77 1.9 NNW 13 19 7 10 1020.3 1019.9 0.0
19/03:00am 12.1 9.5 9.3 83 1.4 NW 13 15 7 8 1020.7 1020.3 0.0
19/02:30am 12.5 10.3 9.5 82 1.5 NW 11 15 6 8 1021.0 1020.6 0.0
19/02:00am 13.7 11.5 9.4 75 2.2 NW 11 15 6 8 1021.3 1020.9 0.0
19/01:30am 13.7 12.1 8.7 72 2.5 NW 7 11 4 6 1021.6 1021.2 0.0
19/01:00am 13.9 12.5 8.9 72 2.6 NW 6 9 3 5 1021.9 1021.5 0.0
19/12:30am 13.8 11.9 9.0 73 2.4 NW 9 13 5 7 1022.2 1021.9 0.0
19/12:00am 13.6 11.7 8.9 73 2.4 W 9 17 5 9 1022.5 1022.2 0.0
 
Date/Time
CST
Temp
°C
App
Temp
°C
Dew
Point
°C
Rel
Hum
%
Delta-T
°C
Wind Press
QNH
hPa
Press
MSL
hPa
Rain since
9am
mm
Dir  Spd
km/h
Gust
km/h
Spd
kts
Gust
kts
18/11:30pm 13.9 12.4 9.1 73 2.4 NNW 7 11 4 6 1022.5 1022.2 0.0
18/11:00pm 13.7 12.2 9.2 74 2.3 NNW 7 9 4 5 1022.9 1022.6 0.0
18/10:30pm 13.5 12.0 9.0 74 2.3 NNW 7 7 4 4 1023.1 1022.8 0.0
18/10:00pm 13.2 11.7 9.1 76 2.1 NNW 7 9 4 5 1023.3 1023.0 0.0
18/09:30pm 14.4 12.8 8.8 69 2.8 NNE 7 9 4 5 1023.4 1023.1 0.0
18/09:00pm 15.1 13.8 9.2 68 3.0 NE 6 7 3 4 1023.4 1023.1 0.0
18/08:30pm 15.5 14.2 9.2 66 3.3 E 6 6 3 3 1023.6 1023.3 0.0
18/08:00pm 15.7 15.5 9.1 65 3.4 CALM 0 0 0 0 1023.8 1023.5 0.0
18/07:30pm 15.9 15.3 8.9 63 3.6 SSE 2 6 1 3 1023.9 1023.6 0.0
18/07:00pm 16.1 14.1 8.8 62 3.8 SE 9 13 5 7 1023.8 1023.5 0.0
18/06:30pm 16.4 14.4 8.6 60 4.0 SSE 9 11 5 6 1023.5 1023.2 0.0
18/06:00pm 16.9 14.8 8.3 57 4.4 SSE 9 11 5 6 1023.5 1023.2 0.0
18/05:30pm 17.0 14.5 8.4 57 4.4 SSE 11 13 6 7 1023.5 1023.2 0.0
18/05:00pm 17.4 14.1 8.0 54 4.8 SSE 15 19 8 10 1023.4 1023.1 0.0
18/04:30pm 17.8 14.1 7.8 52 5.1 SSE 17 22 9 12 1023.5 1023.2 0.0
18/04:00pm 18.3 14.6 8.0 51 5.3 SSW 17 26 9 14 1023.3 1023.0 0.0
18/03:30pm 18.9 15.4 5.4 41 6.6 SW 13 20 7 11 1023.5 1023.2 0.0
18/03:00pm 18.6 15.3 6.4 45 6.1 SW 13 20 7 11 1023.7 1023.4 0.0
18/02:30pm 18.8 16.1 5.6 42 6.5 W 9 17 5 9 1023.8 1023.5 0.0
18/02:00pm 18.5 15.6 6.4 45 6.1 SW 11 17 6 9 1024.2 1023.8 0.0
18/01:30pm 18.5 15.3 6.7 46 5.9 W 13 20 7 11 1024.6 1024.2 0.0
18/01:00pm 18.1 14.4 6.3 46 5.9 WSW 15 22 8 12 1024.9 1024.5 0.0
18/12:30pm 17.8 13.7 6.3 47 5.7 WSW 17 24 9 13 1025.4 1025.0 0.0
18/12:00pm 18.1 14.2 6.9 48 5.6 W 17 22 9 12 1025.8 1025.4 0.0
18/11:30am 17.6 14.0 6.8 49 5.4 SSW 15 24 8 13 1026.1 1025.7 0.0
18/11:00am 17.7 15.6 8.3 54 4.9 W 9 15 5 8 1026.4 1026.0 0.0
18/10:30am 16.8 13.8 9.2 61 4.0 WSW 15 22 8 12 1026.7 1026.3 0.0
18/10:00am 16.2 14.3 10.5 69 3.0 WSW 11 17 6 9 1027.0 1026.6 0.0
18/09:30am 15.4 13.5 10.6 73 2.5 WSW 11 17 6 9 1027.1 1026.8 0.0
18/09:00am 14.6 12.4 10.8 78 2.0 WSW 13 19 7 10 1027.3 1027.0 0.8
18/08:30am 13.6 11.3 10.4 81 1.7 WNW 13 17 7 9 1027.3 1027.0 0.8
18/08:00am 12.7 10.3 10.2 85 1.3 WNW 13 17 7 9 1027.1 1026.8 0.8
18/07:30am 11.9 9.9 10.0 88 1.0 WNW 11 13 6 7 1026.9 1026.5 0.8
18/07:00am 11.1 9.3 9.5 90 0.8 WNW 9 13 5 7 1026.7 1026.3 0.6
18/06:30am 10.6 8.2 8.7 88 0.9 WNW 11 13 6 7 1026.5 1026.1 0.6
18/06:00am 10.6 7.5 8.9 89 0.8 WNW 15 17 8 9 1026.4 1026.0 0.6
18/05:30am 10.1 7.7 8.7 91 0.7 NNW 11 13 6 7 1026.7 1026.3 0.6
18/05:00am 11.2 8.6 9.5 89 0.9 WNW 13 17 7 9 1026.7 1026.3 0.6
18/04:30am 11.2 8.5 8.9 86 1.1 WNW 13 15 7 8 1026.6 1026.2 0.6
18/04:00am 11.3 8.6 9.0 86 1.2 WNW 13 15 7 8 1026.4 1026.0 0.6
18/03:30am 11.7 9.9 9.4 86 1.2 W 9 15 5 8 1026.6 1026.2 0.6
18/03:00am 11.7 9.5 9.3 85 1.2 WNW 11 15 6 8 1026.7 1026.3 0.6
18/02:30am 11.5 9.3 9.2 86 1.2 WNW 11 15 6 8 1027.0 1026.6 0.6
18/02:00am 11.5 8.9 9.4 87 1.1 NW 13 15 7 8 1027.1 1026.8 0.6
18/01:30am 11.1 9.0 9.9 92 0.6 NW 11 13 6 7 1027.5 1027.2 0.6
18/01:00am 11.0 9.3 9.8 92 0.6 NW 9 9 5 5 1027.8 1027.5 0.6
18/12:30am 11.2 9.8 9.6 90 0.8 W 7 9 4 5 1027.9 1027.6 0.6
18/12:00am 12.4 11.5 10.8 90 0.8 WNW 6 6 3 3 1028.0 1027.7 0.6
 
Date/Time
CST
Temp
°C
App
Temp
°C
Dew
Point
°C
Rel
Hum
%
Delta-T
°C
Wind Press
QNH
hPa
Press
MSL
hPa
Rain since
9am
mm
Dir  Spd
km/h
Gust
km/h
Spd
kts
Gust
kts
17/11:30pm 13.1 13.5 11.2 88 1.0 CALM 0 4 0 2 1028.0 1027.7 0.6
17/11:00pm 13.3 12.2 10.7 84 1.4 SW 7 9 4 5 1028.3 1028.0 0.6
17/10:30pm 12.4 10.9 9.2 81 1.6 N 7 7 4 4 1028.4 1028.1 0.0
17/10:00pm 12.7 11.4 9.2 79 1.8 N 6 7 3 4 1028.4 1028.1 0.0
17/09:30pm 12.9 11.6 9.2 78 1.9 ENE 6 7 3 4 1028.5 1028.2 0.0
17/09:00pm 13.0 12.8 8.9 76 2.1 CALM 0 0 0 0 1028.4 1028.1 0.0
17/08:30pm 13.5 13.3 9.0 74 2.3 CALM 0 0 0 0 1028.3 1028.0 0.0
17/08:00pm 13.6 13.3 8.7 72 2.5 CALM 0 0 0 0 1028.3 1028.0 0.0
17/07:30pm 13.8 13.5 8.8 72 2.5 CALM 0 0 0 0 1028.4 1028.1 0.0
17/07:00pm 13.8 12.1 8.4 70 2.7 ENE 7 9 4 5 1028.1 1027.8 0.0
17/06:30pm 14.0 11.5 8.2 68 2.9 E 11 13 6 7 1027.9 1027.6 0.0
17/06:00pm 15.4 12.1 7.9 61 3.8 E 15 19 8 10 1027.7 1027.4 0.0
17/05:30pm 16.5 12.4 8.0 57 4.3 ESE 19 24 10 13 1027.5 1027.2 0.0
17/05:00pm 17.1 12.8 7.7 54 4.8 SE 20 26 11 14 1027.5 1027.2 0.0
17/04:30pm 17.5 13.0 7.0 50 5.2 SSE 20 28 11 15 1027.5 1027.2 0.0

Other formats

Comma delimited format used in spreadsheet applications
http://www.bom.gov.au/fwo/IDS60801/IDS60801.94662.axf

JavaScript Object Notation format (JSON) in row-major order
http://www.bom.gov.au/fwo/IDS60801/IDS60801.94662.json

Data quality

Most of these data are generated automatically and are frequently updated. Quality checks on data are not normally performed. It is possible for incorrect values to appear. Refer to information at About Latest Weather Observations and please check the disclaimer before using these data.